createdAt,value
2018-08-30T00:00:59.998Z,47.50
2018-08-30T00:03:27.983Z,47.60
2018-08-30T00:05:55.929Z,47.60
2018-08-30T00:08:23.890Z,47.70
2018-08-30T00:10:51.898Z,47.80
2018-08-30T00:13:20.013Z,47.70
2018-08-30T00:15:48.512Z,47.80
2018-08-30T00:18:16.561Z,47.90
2018-08-30T00:20:44.494Z,48.00
2018-08-30T00:23:12.835Z,48.70
2018-08-30T00:25:40.821Z,48.10
2018-08-30T00:28:08.808Z,48.10
2018-08-30T00:30:36.768Z,48.10
2018-08-30T00:33:04.924Z,48.10
2018-08-30T00:35:32.878Z,48.30
2018-08-30T00:38:01.111Z,48.30
2018-08-30T00:40:29.043Z,48.40
2018-08-30T00:42:56.994Z,48.50
2018-08-30T00:45:24.940Z,49.10
2018-08-30T00:47:52.955Z,48.80
2018-08-30T00:50:21.304Z,48.90
2018-08-30T00:52:49.252Z,49.00
2018-08-30T00:55:17.228Z,49.10
2018-08-30T00:57:45.198Z,49.20
2018-08-30T01:00:13.114Z,49.00
2018-08-30T01:02:41.091Z,48.90
2018-08-30T01:05:09.363Z,49.00
2018-08-30T01:07:37.601Z,48.90
2018-08-30T01:10:05.900Z,48.90
2018-08-30T01:12:33.886Z,49.00
2018-08-30T01:15:01.978Z,49.80
2018-08-30T01:17:29.924Z,49.20
2018-08-30T01:19:57.879Z,49.20
2018-08-30T01:22:26.108Z,49.30
2018-08-30T01:24:54.062Z,49.00
2018-08-30T01:27:22.025Z,48.90
2018-08-30T01:29:50.022Z,48.90
2018-08-30T01:32:17.955Z,49.00
2018-08-30T01:34:45.902Z,49.80
2018-08-30T01:37:13.877Z,49.10
2018-08-30T01:39:41.818Z,49.00
2018-08-30T01:42:09.772Z,49.10
2018-08-30T01:44:37.705Z,49.30
2018-08-30T01:47:05.691Z,49.30
2018-08-30T01:49:33.639Z,49.50
2018-08-30T01:52:01.763Z,49.50
2018-08-30T01:54:29.715Z,49.50
2018-08-30T01:56:57.669Z,49.60
2018-08-30T01:59:25.621Z,49.60
2018-08-30T02:01:53.869Z,49.70
2018-08-30T02:04:21.828Z,49.80
2018-08-30T02:06:49.783Z,50.00
2018-08-30T02:09:17.760Z,49.90
2018-08-30T02:11:45.784Z,50.10
2018-08-30T02:14:13.743Z,50.10
2018-08-30T02:16:41.702Z,50.30
2018-08-30T02:19:10.064Z,50.40
2018-08-30T02:21:38.012Z,50.20
2018-08-30T02:24:06.200Z,50.30
2018-08-30T02:26:34.234Z,50.30
2018-08-30T02:29:02.168Z,50.40
2018-08-30T02:31:30.419Z,50.60
2018-08-30T02:33:58.368Z,50.60
2018-08-30T02:36:26.432Z,50.80
2018-08-30T02:38:54.400Z,50.90
2018-08-30T02:41:22.356Z,51.00
2018-08-30T02:43:50.293Z,51.00
2018-08-30T02:46:18.240Z,51.10
2018-08-30T02:48:46.277Z,51.20
2018-08-30T02:51:14.251Z,51.30
2018-08-30T02:53:42.192Z,51.40
2018-08-30T02:56:10.153Z,51.40
2018-08-30T02:58:38.110Z,51.40
2018-08-30T03:01:12.770Z,51.50
2018-08-30T03:03:40.741Z,51.50
2018-08-30T03:06:08.702Z,51.50
2018-08-30T03:08:36.663Z,51.50
2018-08-30T03:11:04.688Z,51.60
2018-08-30T03:13:32.675Z,51.90
2018-08-30T03:16:00.656Z,51.90
2018-08-30T03:18:28.594Z,52.00
2018-08-30T03:20:56.541Z,52.20
2018-08-30T03:23:24.505Z,52.10
2018-08-30T03:25:52.452Z,52.20
2018-08-30T03:28:20.442Z,52.30
2018-08-30T03:30:48.611Z,52.40
2018-08-30T03:33:16.564Z,52.40
2018-08-30T03:35:45.051Z,52.30
2018-08-30T03:38:13.032Z,52.30
2018-08-30T03:40:41.978Z,52.30
2018-08-30T03:43:10.123Z,52.30
2018-08-30T03:45:38.090Z,52.50
2018-08-30T03:48:06.164Z,52.70
2018-08-30T03:50:34.148Z,52.90
2018-08-30T03:53:02.108Z,52.90
2018-08-30T03:55:30.068Z,52.80
2018-08-30T03:57:58.039Z,52.80
2018-08-30T04:00:26.002Z,52.70
2018-08-30T04:02:53.971Z,52.70
2018-08-30T04:05:22.178Z,52.60
2018-08-30T04:07:50.122Z,52.60
2018-08-30T04:10:18.083Z,52.70
2018-08-30T04:12:46.292Z,52.70
2018-08-30T04:15:14.251Z,52.70
2018-08-30T04:17:42.286Z,52.70
2018-08-30T04:20:10.244Z,52.80
2018-08-30T04:22:38.496Z,52.90
2018-08-30T04:25:06.430Z,53.00
2018-08-30T04:27:34.391Z,52.90
2018-08-30T04:30:02.363Z,52.80
2018-08-30T04:32:30.311Z,52.90
2018-08-30T04:35:01.684Z,52.90
2018-08-30T04:37:29.629Z,53.00
2018-08-30T04:39:57.603Z,52.90
2018-08-30T04:42:25.635Z,53.00
2018-08-30T04:44:53.527Z,53.90
2018-08-30T04:47:21.506Z,53.90
2018-08-30T04:49:49.483Z,53.50
2018-08-30T04:52:17.468Z,53.30
2018-08-30T04:54:45.664Z,53.40
2018-08-30T04:57:13.710Z,53.50
2018-08-30T04:59:41.651Z,53.60
2018-08-30T05:02:09.635Z,53.60
2018-08-30T05:04:37.621Z,53.70
2018-08-30T05:07:05.702Z,53.60
2018-08-30T05:09:33.650Z,53.70
2018-08-30T05:12:01.604Z,53.60
2018-08-30T05:14:29.570Z,53.70
2018-08-30T05:16:57.527Z,53.80
2018-08-30T05:19:25.504Z,53.90
2018-08-30T05:21:53.761Z,54.00
2018-08-30T05:24:21.717Z,54.00
2018-08-30T05:26:49.660Z,54.10
2018-08-30T05:29:17.628Z,54.10
2018-08-30T05:31:45.596Z,54.30
2018-08-30T05:34:13.558Z,54.40
2018-08-30T05:36:41.619Z,54.70
2018-08-30T05:39:09.653Z,55.00
2018-08-30T05:41:37.639Z,54.90
2018-08-30T05:44:05.600Z,55.50
2018-08-30T05:46:33.607Z,55.90
2018-08-30T05:49:01.576Z,55.90
2018-08-30T05:51:29.986Z,55.70
2018-08-30T05:53:57.969Z,55.60
2018-08-30T05:56:25.935Z,55.60
2018-08-30T05:58:53.946Z,55.50
2018-08-30T06:01:21.908Z,55.60
2018-08-30T06:03:49.887Z,55.50
2018-08-30T06:06:21.621Z,55.50
2018-08-30T06:08:49.573Z,55.70
2018-08-30T06:11:17.519Z,55.60
2018-08-30T06:13:45.489Z,55.60
2018-08-30T06:16:13.935Z,55.70
2018-08-30T06:18:41.881Z,55.70
2018-08-30T06:21:09.838Z,56.60
2018-08-30T06:23:37.956Z,56.90
2018-08-30T06:26:05.947Z,56.10
2018-08-30T06:28:33.931Z,56.00
2018-08-30T06:31:01.883Z,55.80
2018-08-30T06:33:30.058Z,55.60
2018-08-30T06:35:58.540Z,55.70
2018-08-30T06:38:26.725Z,55.90
2018-08-30T06:40:54.682Z,56.50
2018-08-30T06:43:22.924Z,56.80
2018-08-30T06:45:50.889Z,56.80
2018-08-30T06:48:18.882Z,57.20
2018-08-30T06:50:47.200Z,57.60
2018-08-30T06:53:15.152Z,57.60
2018-08-30T06:55:43.190Z,57.80
2018-08-30T06:58:11.186Z,57.80
2018-08-30T07:00:39.248Z,57.90
2018-08-30T07:03:07.459Z,58.20
2018-08-30T07:05:35.424Z,58.40
2018-08-30T07:08:03.400Z,58.80
2018-08-30T07:10:31.353Z,59.30
2018-08-30T07:12:59.581Z,59.60
2018-08-30T07:15:27.822Z,59.80
2018-08-30T07:17:56.070Z,59.90
2018-08-30T07:20:24.032Z,60.20
2018-08-30T07:22:51.999Z,60.70
2018-08-30T07:25:20.036Z,61.10
2018-08-30T07:27:48.003Z,61.40
2018-08-30T07:30:16.037Z,61.30
2018-08-30T07:32:44.216Z,61.70
2018-08-30T07:35:12.267Z,62.70
2018-08-30T07:37:40.308Z,62.90
2018-08-30T07:40:08.269Z,63.50
2018-08-30T07:42:36.300Z,64.20
2018-08-30T07:45:04.456Z,64.40
2018-08-30T07:47:32.533Z,65.10
2018-08-30T07:50:00.522Z,65.10
2018-08-30T07:52:28.588Z,65.90
2018-08-30T07:54:56.656Z,65.90
2018-08-30T07:57:24.769Z,66.50
2018-08-30T07:59:52.766Z,66.70
2018-08-30T08:02:20.782Z,67.10
2018-08-30T08:04:49.341Z,67.70
2018-08-30T08:07:17.603Z,68.00
2018-08-30T08:09:45.535Z,68.80
2018-08-30T08:12:13.803Z,68.40
2018-08-30T08:14:41.800Z,69.00
2018-08-30T08:17:09.795Z,69.00
2018-08-30T08:19:37.755Z,69.10
2018-08-30T08:22:05.801Z,68.80
2018-08-30T08:24:33.783Z,68.90
2018-08-30T08:27:01.811Z,69.40
2018-08-30T08:29:29.824Z,69.60
2018-08-30T08:31:58.078Z,70.20
2018-08-30T08:34:26.160Z,70.20
2018-08-30T08:36:54.302Z,70.80
2018-08-30T08:39:22.385Z,71.80
2018-08-30T08:41:50.457Z,72.00
2018-08-30T08:44:18.609Z,72.30
2018-08-30T08:46:46.621Z,72.40
2018-08-30T08:49:15.232Z,72.60
2018-08-30T08:51:43.183Z,72.60
2018-08-30T08:54:15.008Z,72.80
2018-08-30T08:56:42.982Z,73.10
2018-08-30T08:59:11.305Z,73.20
2018-08-30T09:01:39.376Z,73.20
2018-08-30T09:04:07.377Z,73.20
2018-08-30T09:06:35.924Z,73.40
2018-08-30T09:09:05.172Z,73.60
2018-08-30T09:11:33.155Z,73.90
2018-08-30T09:14:01.134Z,73.60
2018-08-30T09:16:29.091Z,73.90
2018-08-30T09:18:57.140Z,73.80
2018-08-30T09:21:25.097Z,74.00
2018-08-30T09:23:53.176Z,73.90
2018-08-30T09:26:21.395Z,73.90
2018-08-30T09:28:49.528Z,74.00
2018-08-30T09:31:17.598Z,73.70
2018-08-30T09:33:45.818Z,73.60
2018-08-30T09:36:13.981Z,73.90
2018-08-30T09:38:42.047Z,74.00
2018-08-30T09:41:10.265Z,74.10
2018-08-30T09:43:38.304Z,74.10
2018-08-30T09:46:06.280Z,74.60
2018-08-30T09:48:34.412Z,74.40
2018-08-30T09:51:02.387Z,74.00
2018-08-30T09:53:36.822Z,74.60
2018-08-30T09:56:05.420Z,74.00
2018-08-30T09:58:33.497Z,74.50
2018-08-30T10:01:13.754Z,74.90
2018-08-30T10:03:41.873Z,75.10
2018-08-30T10:06:09.857Z,74.30
2018-08-30T10:08:37.808Z,74.70
2018-08-30T10:11:05.785Z,74.40
2018-08-30T10:13:33.788Z,74.40
2018-08-30T10:16:02.890Z,74.30
2018-08-30T10:18:30.823Z,74.40
2018-08-30T10:20:58.798Z,74.70
2018-08-30T10:23:26.839Z,75.10
2018-08-30T10:25:54.869Z,75.30
2018-08-30T10:28:22.819Z,75.30
2018-08-30T10:30:51.144Z,75.40
2018-08-30T10:33:19.433Z,75.10
2018-08-30T10:35:47.431Z,75.40
2018-08-30T10:38:15.461Z,75.70
2018-08-30T10:40:43.511Z,75.50
2018-08-30T10:43:11.918Z,75.40
2018-08-30T10:45:39.883Z,75.50
2018-08-30T10:48:08.024Z,75.40
2018-08-30T10:50:36.054Z,75.30
2018-08-30T10:53:04.100Z,75.30
2018-08-30T10:55:32.084Z,75.80
2018-08-30T10:59:03.505Z,75.90
2018-08-30T11:01:31.533Z,75.80
2018-08-30T11:03:59.532Z,76.80
2018-08-30T11:06:27.506Z,77.20
2018-08-30T11:08:55.476Z,77.50
2018-08-30T11:11:23.448Z,77.90
2018-08-30T11:13:51.503Z,77.80
2018-08-30T11:16:19.608Z,77.20
2018-08-30T11:18:47.653Z,77.30
2018-08-30T11:21:15.736Z,77.20
2018-08-30T11:23:43.808Z,76.90
2018-08-30T11:26:11.766Z,76.30
2018-08-30T11:28:39.714Z,76.00
2018-08-30T11:31:07.727Z,77.10
2018-08-30T11:33:35.689Z,77.20
2018-08-30T11:36:03.663Z,77.10
2018-08-30T11:38:31.630Z,76.50
2018-08-30T11:40:59.677Z,76.50
2018-08-30T11:43:27.756Z,76.70
2018-08-30T11:45:55.630Z,76.50
2018-08-30T11:48:23.822Z,76.50
2018-08-30T11:50:51.934Z,76.80
2018-08-30T11:53:19.936Z,76.80
2018-08-30T11:55:47.916Z,77.40
2018-08-30T11:58:16.009Z,77.20
2018-08-30T12:00:44.234Z,77.10
2018-08-30T12:03:12.286Z,77.40
2018-08-30T12:05:40.751Z,77.50
2018-08-30T12:08:08.873Z,77.90
2018-08-30T12:10:37.362Z,77.40
2018-08-30T12:13:05.704Z,77.10
2018-08-30T12:15:33.666Z,77.10
2018-08-30T12:18:01.804Z,76.40
2018-08-30T12:20:29.864Z,75.80
2018-08-30T12:22:58.008Z,75.40
2018-08-30T12:25:26.175Z,74.70
2018-08-30T12:27:54.315Z,74.70
2018-08-30T12:30:22.497Z,74.00
2018-08-30T12:32:50.525Z,74.00
2018-08-30T12:35:18.557Z,73.90
2018-08-30T12:37:46.472Z,73.90
2018-08-30T12:40:14.555Z,73.00
2018-08-30T12:42:46.318Z,72.70
2018-08-30T12:45:14.295Z,72.60
2018-08-30T12:47:42.603Z,72.60
2018-08-30T12:50:10.680Z,72.10
2018-08-30T12:52:38.653Z,71.90
2018-08-30T12:55:07.074Z,71.60
2018-08-30T13:00:09.600Z,71.90
2018-08-30T13:02:37.707Z,72.20
2018-08-30T13:05:05.729Z,72.70
2018-08-30T13:07:33.771Z,72.80
2018-08-30T13:10:01.953Z,72.60
2018-08-30T13:12:29.980Z,72.40
2018-08-30T13:14:57.985Z,72.30
2018-08-30T13:17:25.839Z,72.20
2018-08-30T13:19:53.782Z,72.30
2018-08-30T13:22:21.997Z,72.40
2018-08-30T13:24:49.838Z,72.20
2018-08-30T13:27:17.871Z,72.00
2018-08-30T13:29:45.889Z,71.60
2018-08-30T13:32:13.867Z,71.80
2018-08-30T13:34:42.038Z,71.50
2018-08-30T13:37:10.072Z,71.60
2018-08-30T13:39:37.857Z,70.90
2018-08-30T13:42:06.134Z,70.90
2018-08-30T13:44:34.073Z,70.90
2018-08-30T13:47:02.142Z,70.90
2018-08-30T13:49:29.914Z,70.80
2018-08-30T13:51:58.187Z,70.50
2018-08-30T13:54:26.392Z,70.30
2018-08-30T13:56:54.259Z,70.10
2018-08-30T13:59:22.325Z,70.30
2018-08-30T14:01:50.404Z,70.40
2018-08-30T14:04:18.284Z,70.50
2018-08-30T14:06:46.277Z,70.60
2018-08-30T14:09:14.179Z,70.80
2018-08-30T14:11:42.635Z,70.90
2018-08-30T14:14:10.221Z,71.10
2018-08-30T14:16:37.897Z,70.60
2018-08-30T14:19:06.060Z,70.80
2018-08-30T14:21:34.043Z,70.60
2018-08-30T14:24:02.343Z,70.50
2018-08-30T14:26:30.451Z,70.50
2018-08-30T14:28:58.394Z,70.60
2018-08-30T14:31:26.380Z,70.50
2018-08-30T14:33:54.922Z,70.50
2018-08-30T14:36:22.914Z,70.60
2018-08-30T14:38:51.178Z,70.50
2018-08-30T14:41:19.052Z,70.40
2018-08-30T14:43:46.982Z,70.30
2018-08-30T14:46:14.944Z,70.30
2018-08-30T14:48:43.002Z,70.40
2018-08-30T14:51:11.461Z,70.40
2018-08-30T14:53:40.021Z,70.50
2018-08-30T14:56:08.016Z,70.50
2018-08-30T14:58:36.018Z,70.20
2018-08-30T15:01:04.069Z,70.20
2018-08-30T15:03:32.071Z,70.20
2018-08-30T15:06:00.123Z,70.20
2018-08-30T15:08:28.100Z,70.00
2018-08-30T15:10:56.157Z,69.90
2018-08-30T15:13:24.160Z,70.00
2018-08-30T15:15:52.112Z,70.00
2018-08-30T15:18:20.065Z,69.60
2018-08-30T15:20:48.128Z,69.70
2018-08-30T15:23:16.185Z,69.60
2018-08-30T15:25:44.129Z,69.40
2018-08-30T15:28:12.501Z,69.20
2018-08-30T15:30:40.516Z,69.40
2018-08-30T15:33:08.760Z,69.30
2018-08-30T15:35:36.979Z,69.40
2018-08-30T15:38:05.471Z,69.40
2018-08-30T15:40:33.548Z,70.20
2018-08-30T15:43:01.582Z,70.80
2018-08-30T15:45:29.527Z,70.90
2018-08-30T15:47:57.896Z,71.50
2018-08-30T15:50:25.867Z,71.40
2018-08-30T15:52:53.961Z,71.20
2018-08-30T15:55:21.844Z,71.30
2018-08-30T15:57:49.927Z,71.10
2018-08-30T16:00:18.179Z,71.20
2018-08-30T16:02:46.969Z,71.70
2018-08-30T16:05:15.209Z,72.00
2018-08-30T16:07:43.731Z,73.90
2018-08-30T16:10:12.681Z,74.70
2018-08-30T16:12:40.943Z,76.00
2018-08-30T16:15:09.275Z,76.50
2018-08-30T16:17:37.298Z,77.40
2018-08-30T16:20:05.591Z,77.90
2018-08-30T16:23:09.351Z,77.60
2018-08-30T16:25:37.369Z,78.20
2018-08-30T16:28:05.944Z,78.20
2018-08-30T16:30:33.991Z,78.60
2018-08-30T16:33:01.963Z,78.50
2018-08-30T16:35:29.931Z,78.40
2018-08-30T16:37:58.092Z,78.30
2018-08-30T16:40:26.117Z,79.20
2018-08-30T16:42:54.413Z,80.00
2018-08-30T16:45:22.653Z,79.90
2018-08-30T16:47:50.959Z,79.90
2018-08-30T16:50:19.270Z,79.90
2018-08-30T16:52:47.200Z,80.10
2018-08-30T16:55:15.222Z,79.70
2018-08-30T16:57:43.227Z,79.40
2018-08-30T17:00:17.844Z,78.80
2018-08-30T17:02:45.925Z,78.30
2018-08-30T17:05:14.027Z,78.80
2018-08-30T17:07:43.057Z,78.60
2018-08-30T17:10:10.986Z,79.30
2018-08-30T17:12:39.626Z,79.10
2018-08-30T17:15:07.843Z,79.50
2018-08-30T17:17:36.259Z,79.60
2018-08-30T17:20:07.511Z,79.30
2018-08-30T17:22:35.570Z,79.20
2018-08-30T17:25:03.920Z,79.60
2018-08-30T17:27:31.882Z,79.20
2018-08-30T17:29:59.894Z,79.30
2018-08-30T17:32:31.752Z,78.90
2018-08-30T17:34:59.874Z,79.20
2018-08-30T17:37:28.952Z,79.30
2018-08-30T17:39:57.171Z,78.60
2018-08-30T17:42:25.217Z,78.50
2018-08-30T17:44:53.391Z,78.80
2018-08-30T17:47:21.377Z,79.20
2018-08-30T17:49:49.343Z,79.20
2018-08-30T17:52:17.286Z,79.20
2018-08-30T17:54:45.277Z,79.10
2018-08-30T17:57:13.306Z,78.80
2018-08-30T17:59:41.293Z,79.20
2018-08-30T18:02:09.318Z,79.90
2018-08-30T18:04:37.304Z,80.20
2018-08-30T18:07:05.331Z,80.50
2018-08-30T18:09:33.235Z,80.60
2018-08-30T18:12:01.239Z,80.90
2018-08-30T18:14:29.405Z,80.90
2018-08-30T18:16:57.353Z,81.20
2018-08-30T18:19:25.319Z,81.40
2018-08-30T18:21:53.412Z,81.60
2018-08-30T18:24:21.534Z,81.40
2018-08-30T18:26:49.555Z,80.70
2018-08-30T18:29:17.537Z,80.70
2018-08-30T18:31:49.266Z,80.90
2018-08-30T18:34:17.356Z,80.50
2018-08-30T18:36:45.367Z,80.70
2018-08-30T18:39:13.359Z,80.60
2018-08-30T18:41:41.384Z,80.50
2018-08-30T18:44:09.705Z,80.50
2018-08-30T18:46:41.116Z,80.60
2018-08-30T18:49:09.215Z,81.50
2018-08-30T18:51:37.422Z,81.10
2018-08-30T18:54:05.379Z,81.00
2018-08-30T18:56:33.394Z,80.60
2018-08-30T18:59:01.441Z,80.70
2018-08-30T19:01:29.456Z,80.50
2018-08-30T19:03:57.503Z,80.60
2018-08-30T19:06:25.488Z,80.80
2018-08-30T19:08:53.576Z,80.80
2018-08-30T19:11:21.652Z,80.90
2018-08-30T19:13:50.040Z,80.80
2018-08-30T19:16:23.587Z,81.00
2018-08-30T19:18:57.447Z,80.70
2018-08-30T19:21:25.465Z,80.70
2018-08-30T19:23:53.551Z,80.60
2018-08-30T19:26:22.163Z,80.70
2018-08-30T19:28:50.116Z,80.50
2018-08-30T19:31:18.170Z,80.40
2018-08-30T19:33:46.135Z,81.00
2018-08-30T19:36:19.522Z,80.20
2018-08-30T19:38:47.486Z,80.50
2018-08-30T19:41:18.496Z,80.40
2018-08-30T19:43:46.764Z,80.30
2018-08-30T19:46:14.717Z,80.40
2018-08-30T19:48:42.768Z,80.60
2018-08-30T19:51:10.702Z,80.60
2018-08-30T19:53:38.822Z,80.50
2018-08-30T19:56:07.096Z,80.00
2018-08-30T19:58:35.103Z,79.80
2018-08-30T20:01:03.508Z,79.50
2018-08-30T20:03:31.667Z,79.20
2018-08-30T20:05:59.962Z,79.30
2018-08-30T20:08:28.109Z,79.50
2018-08-30T20:10:56.926Z,79.40
2018-08-30T20:13:25.284Z,79.30
2018-08-30T20:15:53.674Z,79.60
2018-08-30T20:18:21.668Z,79.40
2018-08-30T20:20:50.056Z,79.20
2018-08-30T20:23:18.015Z,79.00
2018-08-30T20:25:46.054Z,79.20
2018-08-30T20:28:14.009Z,79.20
2018-08-30T20:30:41.995Z,78.40
2018-08-30T20:33:10.119Z,78.40
2018-08-30T20:35:38.326Z,78.20
2018-08-30T20:38:06.446Z,77.90
2018-08-30T20:40:34.560Z,77.70
2018-08-30T20:43:02.623Z,77.90
2018-08-30T20:45:30.637Z,77.90
2018-08-30T20:47:58.701Z,77.70
2018-08-30T20:50:26.700Z,78.50
2018-08-30T20:52:54.659Z,77.40
2018-08-30T20:55:22.655Z,77.60
2018-08-30T20:57:50.620Z,77.50
2018-08-30T21:00:18.612Z,77.50
2018-08-30T21:02:46.522Z,77.20
2018-08-30T21:05:14.803Z,77.10
2018-08-30T21:07:42.811Z,78.10
2018-08-30T21:10:10.746Z,76.80
2018-08-30T21:12:38.900Z,76.80
2018-08-30T21:15:07.339Z,76.90
2018-08-30T21:17:35.374Z,76.60
2018-08-30T21:20:03.632Z,76.40
2018-08-30T21:22:31.648Z,76.60
2018-08-30T21:24:59.618Z,76.40
2018-08-30T21:27:27.646Z,76.30
2018-08-30T21:29:55.656Z,76.60
2018-08-30T21:32:23.588Z,76.60
2018-08-30T21:34:51.538Z,76.70
2018-08-30T21:37:19.488Z,76.40
2018-08-30T21:39:47.438Z,76.70
2018-08-30T21:42:15.384Z,76.40
2018-08-30T21:44:43.339Z,76.50
2018-08-30T21:47:11.354Z,76.50
2018-08-30T21:49:39.300Z,76.10
2018-08-30T21:52:07.344Z,76.10
2018-08-30T21:54:36.370Z,76.40
2018-08-30T21:57:04.315Z,76.20
2018-08-30T21:59:32.280Z,76.40
2018-08-30T22:02:00.318Z,76.50
2018-08-30T22:04:28.371Z,76.40
2018-08-30T22:06:56.271Z,76.40
2018-08-30T22:09:24.235Z,76.20
2018-08-30T22:11:52.219Z,76.20
2018-08-30T22:14:20.172Z,76.00
2018-08-30T22:16:48.139Z,75.90
2018-08-30T22:19:16.177Z,75.40
2018-08-30T22:21:44.132Z,75.10
2018-08-30T22:24:12.138Z,74.90
2018-08-30T22:26:40.095Z,74.90
2018-08-30T22:29:08.190Z,74.80
2018-08-30T22:31:36.157Z,74.50
2018-08-30T22:34:04.465Z,74.30
2018-08-30T22:36:32.406Z,74.20
2018-08-30T22:39:00.463Z,74.00
2018-08-30T22:41:28.483Z,73.90
2018-08-30T22:43:56.440Z,73.70
2018-08-30T22:46:24.454Z,74.50
2018-08-30T22:48:52.423Z,75.70
2018-08-30T22:51:20.382Z,77.10
2018-08-30T22:53:48.342Z,83.60
2018-08-30T22:56:16.912Z,87.10
2018-08-30T22:58:45.204Z,85.80
2018-08-30T23:01:13.144Z,86.20
2018-08-30T23:06:09.296Z,71.60
2018-08-30T23:08:37.251Z,72.00
2018-08-30T23:11:05.230Z,71.80
2018-08-30T23:13:33.237Z,71.90
2018-08-30T23:16:01.580Z,71.30
2018-08-30T23:18:29.605Z,71.30
2018-08-30T23:20:57.573Z,71.00
2018-08-30T23:23:25.574Z,70.90
2018-08-30T23:25:53.608Z,71.10
2018-08-30T23:28:21.864Z,71.10
2018-08-30T23:30:49.799Z,71.20
2018-08-30T23:33:17.747Z,70.80
2018-08-30T23:35:45.698Z,70.80
2018-08-30T23:38:13.765Z,70.60
2018-08-30T23:40:41.708Z,70.60
2018-08-30T23:43:09.693Z,70.80
2018-08-30T23:45:37.661Z,70.70
2018-08-30T23:48:05.617Z,70.40
2018-08-30T23:50:33.876Z,70.40
2018-08-30T23:53:01.832Z,70.20
2018-08-30T23:55:29.776Z,70.10
2018-08-30T23:58:09.303Z,70.40
